sensor_id;sensor_type;location;lat;lon;timestamp;P1;durP1;ratioP1;P2;durP2;ratioP2
34920;SDS011;21128;50.016;20.002;2023-09-07T00:00:58;19.20;;;12.40;;
34920;SDS011;21128;50.016;20.002;2023-09-07T00:03:37;22.60;;;11.80;;
34920;SDS011;21128;50.016;20.002;2023-09-07T00:06:08;19.00;;;12.60;;
34920;SDS011;21128;50.016;20.002;2023-09-07T00:08:38;24.30;;;12.80;;
34920;SDS011;21128;50.016;20.002;2023-09-07T00:11:06;23.90;;;12.60;;
34920;SDS011;21128;50.016;20.002;2023-09-07T00:13:33;19.00;;;12.20;;
34920;SDS011;21128;50.016;20.002;2023-09-07T00:16:00;19.70;;;11.20;;
34920;SDS011;21128;50.016;20.002;2023-09-07T00:18:29;16.40;;;10.70;;
34920;SDS011;21128;50.016;20.002;2023-09-07T00:20:56;22.90;;;11.90;;
34920;SDS011;21128;50.016;20.002;2023-09-07T00:23:23;17.20;;;11.20;;
34920;SDS011;21128;50.016;20.002;2023-09-07T00:25:50;21.40;;;13.30;;
34920;SDS011;21128;50.016;20.002;2023-09-07T00:28:17;17.50;;;11.00;;
34920;SDS011;21128;50.016;20.002;2023-09-07T00:30:44;19.80;;;11.20;;
34920;SDS011;21128;50.016;20.002;2023-09-07T00:33:11;19.70;;;11.60;;
34920;SDS011;21128;50.016;20.002;2023-09-07T00:35:38;22.40;;;12.80;;
34920;SDS011;21128;50.016;20.002;2023-09-07T00:38:05;19.00;;;11.30;;
34920;SDS011;21128;50.016;20.002;2023-09-07T00:40:34;17.70;;;10.40;;
34920;SDS011;21128;50.016;20.002;2023-09-07T00:43:01;21.00;;;11.30;;
34920;SDS011;21128;50.016;20.002;2023-09-07T00:45:28;18.20;;;11.00;;
34920;SDS011;21128;50.016;20.002;2023-09-07T00:47:56;19.40;;;11.60;;
34920;SDS011;21128;50.016;20.002;2023-09-07T00:50:23;16.80;;;10.90;;
34920;SDS011;21128;50.016;20.002;2023-09-07T00:52:50;16.00;;;11.00;;
34920;SDS011;21128;50.016;20.002;2023-09-07T00:55:18;22.70;;;12.10;;
34920;SDS011;21128;50.016;20.002;2023-09-07T00:57:45;19.00;;;11.00;;
34920;SDS011;21128;50.016;20.002;2023-09-07T01:00:13;17.20;;;11.00;;
34920;SDS011;21128;50.016;20.002;2023-09-07T01:02:40;19.80;;;11.90;;
34920;SDS011;21128;50.016;20.002;2023-09-07T01:05:09;19.60;;;11.90;;
34920;SDS011;21128;50.016;20.002;2023-09-07T01:07:37;17.40;;;11.70;;
34920;SDS011;21128;50.016;20.002;2023-09-07T01:10:09;21.10;;;10.70;;
34920;SDS011;21128;50.016;20.002;2023-09-07T01:12:37;26.10;;;11.70;;
34920;SDS011;21128;50.016;20.002;2023-09-07T01:15:04;17.50;;;11.00;;
34920;SDS011;21128;50.016;20.002;2023-09-07T01:17:32;18.50;;;11.90;;
34920;SDS011;21128;50.016;20.002;2023-09-07T01:20:02;20.30;;;11.50;;
34920;SDS011;21128;50.016;20.002;2023-09-07T01:22:36;19.60;;;11.70;;
34920;SDS011;21128;50.016;20.002;2023-09-07T01:25:05;22.80;;;13.10;;
34920;SDS011;21128;50.016;20.002;2023-09-07T01:27:34;17.90;;;11.90;;
34920;SDS011;21128;50.016;20.002;2023-09-07T01:30:01;23.40;;;13.10;;
34920;SDS011;21128;50.016;20.002;2023-09-07T01:32:31;19.10;;;11.70;;
34920;SDS011;21128;50.016;20.002;2023-09-07T01:34:58;23.10;;;12.70;;
34920;SDS011;21128;50.016;20.002;2023-09-07T01:37:27;26.30;;;13.40;;
34920;SDS011;21128;50.016;20.002;2023-09-07T01:39:54;19.50;;;13.20;;
34920;SDS011;21128;50.016;20.002;2023-09-07T01:42:23;20.30;;;12.80;;
34920;SDS011;21128;50.016;20.002;2023-09-07T01:44:50;25.40;;;13.80;;
34920;SDS011;21128;50.016;20.002;2023-09-07T01:47:17;22.00;;;13.10;;
34920;SDS011;21128;50.016;20.002;2023-09-07T01:49:45;23.70;;;12.90;;
34920;SDS011;21128;50.016;20.002;2023-09-07T01:52:11;20.10;;;11.50;;
34920;SDS011;21128;50.016;20.002;2023-09-07T01:54:38;17.90;;;11.40;;
34920;SDS011;21128;50.016;20.002;2023-09-07T01:57:05;20.20;;;11.60;;
34920;SDS011;21128;50.016;20.002;2023-09-07T01:59:32;23.10;;;11.90;;
34920;SDS011;21128;50.016;20.002;2023-09-07T02:01:59;19.40;;;11.50;;
34920;SDS011;21128;50.016;20.002;2023-09-07T02:04:26;18.80;;;11.40;;
34920;SDS011;21128;50.016;20.002;2023-09-07T02:06:53;19.00;;;10.60;;
34920;SDS011;21128;50.016;20.002;2023-09-07T02:09:19;17.30;;;11.10;;
34920;SDS011;21128;50.016;20.002;2023-09-07T02:11:46;20.30;;;11.10;;
34920;SDS011;21128;50.016;20.002;2023-09-07T02:14:13;19.70;;;10.60;;
34920;SDS011;21128;50.016;20.002;2023-09-07T02:16:40;18.50;;;11.10;;
34920;SDS011;21128;50.016;20.002;2023-09-07T02:19:09;20.50;;;10.90;;
34920;SDS011;21128;50.016;20.002;2023-09-07T02:21:36;20.90;;;11.50;;
34920;SDS011;21128;50.016;20.002;2023-09-07T02:24:03;18.50;;;11.80;;
34920;SDS011;21128;50.016;20.002;2023-09-07T02:26:30;19.50;;;11.70;;
34920;SDS011;21128;50.016;20.002;2023-09-07T02:28:57;20.00;;;10.70;;
34920;SDS011;21128;50.016;20.002;2023-09-07T02:31:23;20.70;;;11.10;;
34920;SDS011;21128;50.016;20.002;2023-09-07T02:33:50;19.40;;;11.60;;
34920;SDS011;21128;50.016;20.002;2023-09-07T02:36:17;18.20;;;11.10;;
34920;SDS011;21128;50.016;20.002;2023-09-07T02:38:44;22.30;;;11.00;;
34920;SDS011;21128;50.016;20.002;2023-09-07T02:41:14;18.90;;;11.70;;
34920;SDS011;21128;50.016;20.002;2023-09-07T02:43:41;20.00;;;11.60;;
34920;SDS011;21128;50.016;20.002;2023-09-07T02:46:08;20.90;;;12.20;;
34920;SDS011;21128;50.016;20.002;2023-09-07T02:48:34;18.40;;;11.40;;
34920;SDS011;21128;50.016;20.002;2023-09-07T02:51:01;17.70;;;11.40;;
34920;SDS011;21128;50.016;20.002;2023-09-07T02:53:28;18.50;;;11.80;;
34920;SDS011;21128;50.016;20.002;2023-09-07T02:55:56;20.30;;;11.30;;
34920;SDS011;21128;50.016;20.002;2023-09-07T02:58:23;22.90;;;11.80;;
34920;SDS011;21128;50.016;20.002;2023-09-07T03:00:50;19.10;;;12.40;;
34920;SDS011;21128;50.016;20.002;2023-09-07T03:03:17;16.60;;;11.40;;
34920;SDS011;21128;50.016;20.002;2023-09-07T03:05:44;17.20;;;11.50;;
34920;SDS011;21128;50.016;20.002;2023-09-07T03:08:11;18.00;;;11.30;;
34920;SDS011;21128;50.016;20.002;2023-09-07T03:10:39;20.20;;;10.90;;
34920;SDS011;21128;50.016;20.002;2023-09-07T03:13:06;16.60;;;11.80;;
34920;SDS011;21128;50.016;20.002;2023-09-07T03:15:34;19.70;;;11.70;;
34920;SDS011;21128;50.016;20.002;2023-09-07T03:18:01;19.60;;;11.60;;
34920;SDS011;21128;50.016;20.002;2023-09-07T03:20:28;20.10;;;12.40;;
34920;SDS011;21128;50.016;20.002;2023-09-07T03:22:55;20.50;;;11.10;;
34920;SDS011;21128;50.016;20.002;2023-09-07T03:25:22;17.20;;;11.60;;
34920;SDS011;21128;50.016;20.002;2023-09-07T03:27:49;19.70;;;12.10;;
34920;SDS011;21128;50.016;20.002;2023-09-07T03:30:16;19.40;;;11.80;;
34920;SDS011;21128;50.016;20.002;2023-09-07T03:32:43;22.90;;;12.30;;
34920;SDS011;21128;50.016;20.002;2023-09-07T03:35:10;23.20;;;12.30;;
34920;SDS011;21128;50.016;20.002;2023-09-07T03:37:37;23.50;;;13.30;;
34920;SDS011;21128;50.016;20.002;2023-09-07T03:40:04;18.70;;;12.80;;
34920;SDS011;21128;50.016;20.002;2023-09-07T03:42:32;21.50;;;13.00;;
34920;SDS011;21128;50.016;20.002;2023-09-07T03:44:59;21.90;;;12.60;;
34920;SDS011;21128;50.016;20.002;2023-09-07T03:47:26;18.60;;;12.80;;
34920;SDS011;21128;50.016;20.002;2023-09-07T03:49:59;23.50;;;12.10;;
34920;SDS011;21128;50.016;20.002;2023-09-07T03:52:28;23.30;;;12.90;;
34920;SDS011;21128;50.016;20.002;2023-09-07T03:54:56;22.10;;;12.40;;
34920;SDS011;21128;50.016;20.002;2023-09-07T03:57:24;19.20;;;12.70;;
34920;SDS011;21128;50.016;20.002;2023-09-07T03:59:51;25.00;;;13.30;;
34920;SDS011;21128;50.016;20.002;2023-09-07T04:02:18;23.00;;;12.30;;
34920;SDS011;21128;50.016;20.002;2023-09-07T04:04:49;20.10;;;13.40;;
34920;SDS011;21128;50.016;20.002;2023-09-07T04:07:17;25.20;;;13.50;;
34920;SDS011;21128;50.016;20.002;2023-09-07T04:09:44;22.10;;;13.90;;
34920;SDS011;21128;50.016;20.002;2023-09-07T04:12:12;19.90;;;14.00;;
34920;SDS011;21128;50.016;20.002;2023-09-07T04:14:39;23.10;;;14.00;;
34920;SDS011;21128;50.016;20.002;2023-09-07T04:17:08;23.00;;;12.70;;
34920;SDS011;21128;50.016;20.002;2023-09-07T04:19:35;21.60;;;13.60;;
34920;SDS011;21128;50.016;20.002;2023-09-07T04:22:01;25.40;;;13.70;;
34920;SDS011;21128;50.016;20.002;2023-09-07T04:24:28;22.00;;;13.20;;
34920;SDS011;21128;50.016;20.002;2023-09-07T04:27:01;20.20;;;13.60;;
34920;SDS011;21128;50.016;20.002;2023-09-07T04:29:28;43.10;;;26.10;;
34920;SDS011;21128;50.016;20.002;2023-09-07T04:31:55;24.90;;;15.50;;
34920;SDS011;21128;50.016;20.002;2023-09-07T04:34:23;20.50;;;14.10;;
34920;SDS011;21128;50.016;20.002;2023-09-07T04:36:50;22.10;;;13.50;;
34920;SDS011;21128;50.016;20.002;2023-09-07T04:39:16;22.40;;;13.30;;
34920;SDS011;21128;50.016;20.002;2023-09-07T04:41:44;24.00;;;13.80;;
34920;SDS011;21128;50.016;20.002;2023-09-07T04:44:11;23.80;;;14.10;;
34920;SDS011;21128;50.016;20.002;2023-09-07T04:46:38;20.60;;;14.10;;
34920;SDS011;21128;50.016;20.002;2023-09-07T04:49:04;21.20;;;13.30;;
34920;SDS011;21128;50.016;20.002;2023-09-07T04:51:31;22.90;;;13.60;;
34920;SDS011;21128;50.016;20.002;2023-09-07T04:53:58;19.60;;;12.70;;
34920;SDS011;21128;50.016;20.002;2023-09-07T04:56:25;19.80;;;12.20;;
34920;SDS011;21128;50.016;20.002;2023-09-07T04:58:52;22.50;;;12.60;;
34920;SDS011;21128;50.016;20.002;2023-09-07T05:01:19;16.80;;;11.30;;
34920;SDS011;21128;50.016;20.002;2023-09-07T05:03:45;22.40;;;11.50;;
34920;SDS011;21128;50.016;20.002;2023-09-07T05:06:12;22.20;;;11.20;;
34920;SDS011;21128;50.016;20.002;2023-09-07T05:08:40;19.50;;;10.80;;
34920;SDS011;21128;50.016;20.002;2023-09-07T05:11:07;22.20;;;11.20;;
34920;SDS011;21128;50.016;20.002;2023-09-07T05:13:34;18.50;;;11.60;;
34920;SDS011;21128;50.016;20.002;2023-09-07T05:16:00;18.10;;;11.00;;
34920;SDS011;21128;50.016;20.002;2023-09-07T05:18:28;16.50;;;10.40;;
34920;SDS011;21128;50.016;20.002;2023-09-07T05:20:54;18.90;;;10.90;;
34920;SDS011;21128;50.016;20.002;2023-09-07T05:23:21;20.10;;;11.30;;
34920;SDS011;21128;50.016;20.002;2023-09-07T05:25:50;15.40;;;10.20;;
34920;SDS011;21128;50.016;20.002;2023-09-07T05:28:21;23.10;;;11.20;;
34920;SDS011;21128;50.016;20.002;2023-09-07T05:30:49;16.90;;;10.70;;
34920;SDS011;21128;50.016;20.002;2023-09-07T05:33:16;17.50;;;10.90;;
34920;SDS011;21128;50.016;20.002;2023-09-07T05:35:45;21.50;;;11.30;;
34920;SDS011;21128;50.016;20.002;2023-09-07T05:38:12;18.80;;;11.00;;
34920;SDS011;21128;50.016;20.002;2023-09-07T05:40:43;19.30;;;10.90;;
34920;SDS011;21128;50.016;20.002;2023-09-07T05:43:11;15.90;;;10.80;;
34920;SDS011;21128;50.016;20.002;2023-09-07T05:45:41;24.20;;;11.40;;
34920;SDS011;21128;50.016;20.002;2023-09-07T05:48:08;18.40;;;11.60;;
34920;SDS011;21128;50.016;20.002;2023-09-07T05:50:36;18.60;;;11.80;;
34920;SDS011;21128;50.016;20.002;2023-09-07T05:53:04;19.80;;;12.40;;
34920;SDS011;21128;50.016;20.002;2023-09-07T05:55:31;19.60;;;12.00;;
34920;SDS011;21128;50.016;20.002;2023-09-07T05:57:58;17.60;;;11.60;;
34920;SDS011;21128;50.016;20.002;2023-09-07T06:00:26;21.50;;;11.90;;
34920;SDS011;21128;50.016;20.002;2023-09-07T06:02:52;19.20;;;11.00;;
34920;SDS011;21128;50.016;20.002;2023-09-07T06:05:19;18.90;;;11.50;;
34920;SDS011;21128;50.016;20.002;2023-09-07T06:07:46;20.60;;;10.90;;
34920;SDS011;21128;50.016;20.002;2023-09-07T06:10:13;18.90;;;11.30;;
34920;SDS011;21128;50.016;20.002;2023-09-07T06:12:41;21.00;;;12.10;;
34920;SDS011;21128;50.016;20.002;2023-09-07T06:15:08;19.30;;;11.60;;
34920;SDS011;21128;50.016;20.002;2023-09-07T06:17:35;17.90;;;12.10;;
34920;SDS011;21128;50.016;20.002;2023-09-07T06:20:02;18.60;;;11.30;;
34920;SDS011;21128;50.016;20.002;2023-09-07T06:22:29;21.50;;;11.40;;
34920;SDS011;21128;50.016;20.002;2023-09-07T06:24:56;24.00;;;12.30;;
34920;SDS011;21128;50.016;20.002;2023-09-07T06:27:23;19.10;;;11.70;;
34920;SDS011;21128;50.016;20.002;2023-09-07T06:29:50;19.90;;;12.30;;
34920;SDS011;21128;50.016;20.002;2023-09-07T06:32:17;23.00;;;12.00;;
34920;SDS011;21128;50.016;20.002;2023-09-07T06:34:45;20.60;;;11.70;;
34920;SDS011;21128;50.016;20.002;2023-09-07T06:37:12;21.10;;;12.30;;
34920;SDS011;21128;50.016;20.002;2023-09-07T06:39:39;23.30;;;11.80;;
34920;SDS011;21128;50.016;20.002;2023-09-07T06:42:05;19.50;;;10.90;;
34920;SDS011;21128;50.016;20.002;2023-09-07T06:44:33;18.50;;;11.00;;
34920;SDS011;21128;50.016;20.002;2023-09-07T06:47:00;21.80;;;10.90;;
34920;SDS011;21128;50.016;20.002;2023-09-07T06:49:27;22.00;;;11.60;;
34920;SDS011;21128;50.016;20.002;2023-09-07T06:51:56;18.60;;;11.60;;
34920;SDS011;21128;50.016;20.002;2023-09-07T06:54:23;15.30;;;10.30;;
34920;SDS011;21128;50.016;20.002;2023-09-07T06:56:49;20.20;;;11.10;;
34920;SDS011;21128;50.016;20.002;2023-09-07T06:59:16;17.50;;;10.10;;
34920;SDS011;21128;50.016;20.002;2023-09-07T07:01:43;17.40;;;10.50;;
34920;SDS011;21128;50.016;20.002;2023-09-07T07:04:10;14.60;;;10.80;;
34920;SDS011;21128;50.016;20.002;2023-09-07T07:06:37;20.30;;;11.20;;
34920;SDS011;21128;50.016;20.002;2023-09-07T07:09:03;17.60;;;10.40;;
34920;SDS011;21128;50.016;20.002;2023-09-07T07:11:30;21.50;;;10.50;;
34920;SDS011;21128;50.016;20.002;2023-09-07T07:13:57;18.20;;;11.30;;
34920;SDS011;21128;50.016;20.002;2023-09-07T07:16:24;26.60;;;12.40;;
34920;SDS011;21128;50.016;20.002;2023-09-07T07:18:50;18.40;;;11.20;;
34920;SDS011;21128;50.016;20.002;2023-09-07T07:21:17;20.40;;;10.50;;
34920;SDS011;21128;50.016;20.002;2023-09-07T07:23:44;15.40;;;10.80;;
34920;SDS011;21128;50.016;20.002;2023-09-07T07:26:11;19.40;;;10.00;;
34920;SDS011;21128;50.016;20.002;2023-09-07T07:28:38;14.90;;;9.50;;
34920;SDS011;21128;50.016;20.002;2023-09-07T07:31:08;18.80;;;11.10;;
34920;SDS011;21128;50.016;20.002;2023-09-07T07:33:35;18.80;;;9.50;;
34920;SDS011;21128;50.016;20.002;2023-09-07T07:36:04;17.10;;;10.50;;
34920;SDS011;21128;50.016;20.002;2023-09-07T07:38:31;18.70;;;10.60;;
34920;SDS011;21128;50.016;20.002;2023-09-07T07:40:58;15.00;;;9.80;;
34920;SDS011;21128;50.016;20.002;2023-09-07T07:43:25;17.60;;;10.60;;
34920;SDS011;21128;50.016;20.002;2023-09-07T07:45:53;22.30;;;10.70;;
34920;SDS011;21128;50.016;20.002;2023-09-07T07:48:20;21.40;;;10.70;;
34920;SDS011;21128;50.016;20.002;2023-09-07T07:50:47;19.70;;;10.00;;
34920;SDS011;21128;50.016;20.002;2023-09-07T07:53:14;17.30;;;10.30;;
34920;SDS011;21128;50.016;20.002;2023-09-07T07:55:41;16.70;;;10.80;;
34920;SDS011;21128;50.016;20.002;2023-09-07T07:58:08;17.30;;;9.70;;
34920;SDS011;21128;50.016;20.002;2023-09-07T08:00:37;17.50;;;10.30;;
34920;SDS011;21128;50.016;20.002;2023-09-07T08:03:04;15.90;;;9.10;;
34920;SDS011;21128;50.016;20.002;2023-09-07T08:05:34;16.60;;;9.00;;
34920;SDS011;21128;50.016;20.002;2023-09-07T08:08:01;18.50;;;9.50;;
34920;SDS011;21128;50.016;20.002;2023-09-07T08:10:28;14.00;;;9.00;;
34920;SDS011;21128;50.016;20.002;2023-09-07T08:12:55;17.80;;;9.00;;
34920;SDS011;21128;50.016;20.002;2023-09-07T08:15:23;14.90;;;8.80;;
34920;SDS011;21128;50.016;20.002;2023-09-07T08:17:51;15.30;;;8.70;;
34920;SDS011;21128;50.016;20.002;2023-09-07T08:20:18;13.70;;;8.90;;
34920;SDS011;21128;50.016;20.002;2023-09-07T08:22:45;13.00;;;8.20;;
34920;SDS011;21128;50.016;20.002;2023-09-07T08:25:12;19.80;;;8.70;;
34920;SDS011;21128;50.016;20.002;2023-09-07T08:27:43;17.30;;;8.60;;
34920;SDS011;21128;50.016;20.002;2023-09-07T08:30:11;16.30;;;7.70;;
34920;SDS011;21128;50.016;20.002;2023-09-07T08:32:41;14.50;;;8.10;;
34920;SDS011;21128;50.016;20.002;2023-09-07T08:35:09;13.20;;;8.10;;
34920;SDS011;21128;50.016;20.002;2023-09-07T08:37:39;13.60;;;8.50;;
34920;SDS011;21128;50.016;20.002;2023-09-07T08:40:06;14.30;;;8.00;;
34920;SDS011;21128;50.016;20.002;2023-09-07T08:42:35;13.30;;;8.10;;
34920;SDS011;21128;50.016;20.002;2023-09-07T08:45:03;14.20;;;8.30;;
34920;SDS011;21128;50.016;20.002;2023-09-07T08:47:36;12.30;;;8.60;;
34920;SDS011;21128;50.016;20.002;2023-09-07T08:50:04;16.10;;;8.20;;
34920;SDS011;21128;50.016;20.002;2023-09-07T08:52:35;11.90;;;7.20;;
34920;SDS011;21128;50.016;20.002;2023-09-07T08:55:02;13.00;;;8.20;;
34920;SDS011;21128;50.016;20.002;2023-09-07T08:57:32;14.80;;;8.10;;
34920;SDS011;21128;50.016;20.002;2023-09-07T09:00:00;13.90;;;8.60;;
34920;SDS011;21128;50.016;20.002;2023-09-07T09:02:27;15.70;;;7.60;;
34920;SDS011;21128;50.016;20.002;2023-09-07T09:04:54;17.80;;;8.80;;
34920;SDS011;21128;50.016;20.002;2023-09-07T09:07:21;15.20;;;8.70;;
34920;SDS011;21128;50.016;20.002;2023-09-07T09:09:48;13.30;;;8.00;;
34920;SDS011;21128;50.016;20.002;2023-09-07T09:12:16;16.10;;;8.50;;
34920;SDS011;21128;50.016;20.002;2023-09-07T09:14:43;13.90;;;8.00;;
34920;SDS011;21128;50.016;20.002;2023-09-07T09:17:14;11.80;;;7.80;;
34920;SDS011;21128;50.016;20.002;2023-09-07T09:19:41;12.90;;;7.50;;
34920;SDS011;21128;50.016;20.002;2023-09-07T09:22:08;11.40;;;7.10;;
34920;SDS011;21128;50.016;20.002;2023-09-07T09:24:36;11.20;;;6.80;;
34920;SDS011;21128;50.016;20.002;2023-09-07T09:27:03;12.50;;;6.90;;
34920;SDS011;21128;50.016;20.002;2023-09-07T09:29:33;10.70;;;7.50;;
34920;SDS011;21128;50.016;20.002;2023-09-07T09:32:04;15.80;;;7.00;;
34920;SDS011;21128;50.016;20.002;2023-09-07T09:34:36;9.30;;;6.60;;
34920;SDS011;21128;50.016;20.002;2023-09-07T09:37:04;9.50;;;6.80;;
34920;SDS011;21128;50.016;20.002;2023-09-07T09:39:31;10.90;;;6.50;;
34920;SDS011;21128;50.016;20.002;2023-09-07T09:41:58;12.70;;;6.30;;
34920;SDS011;21128;50.016;20.002;2023-09-07T09:44:26;16.40;;;7.10;;
34920;SDS011;21128;50.016;20.002;2023-09-07T09:46:56;12.90;;;6.20;;
34920;SDS011;21128;50.016;20.002;2023-09-07T09:49:25;17.30;;;6.30;;
34920;SDS011;21128;50.016;20.002;2023-09-07T09:51:53;11.80;;;6.50;;
34920;SDS011;21128;50.016;20.002;2023-09-07T09:54:20;12.70;;;5.80;;
34920;SDS011;21128;50.016;20.002;2023-09-07T09:56:48;12.40;;;6.30;;
34920;SDS011;21128;50.016;20.002;2023-09-07T09:59:15;13.80;;;6.40;;
34920;SDS011;21128;50.016;20.002;2023-09-07T10:01:46;12.90;;;6.40;;
34920;SDS011;21128;50.016;20.002;2023-09-07T10:04:17;12.00;;;6.20;;
34920;SDS011;21128;50.016;20.002;2023-09-07T10:07:00;8.30;;;5.60;;
34920;SDS011;21128;50.016;20.002;2023-09-07T10:09:34;9.50;;;6.20;;
34920;SDS011;21128;50.016;20.002;2023-09-07T10:12:03;8.40;;;5.90;;
34920;SDS011;21128;50.016;20.002;2023-09-07T10:14:37;11.10;;;5.50;;
34920;SDS011;21128;50.016;20.002;2023-09-07T10:17:06;14.00;;;5.90;;
34920;SDS011;21128;50.016;20.002;2023-09-07T10:19:33;8.10;;;5.70;;
34920;SDS011;21128;50.016;20.002;2023-09-07T10:22:03;12.90;;;5.60;;
34920;SDS011;21128;50.016;20.002;2023-09-07T10:24:31;9.60;;;5.20;;
34920;SDS011;21128;50.016;20.002;2023-09-07T10:27:06;8.20;;;4.60;;
34920;SDS011;21128;50.016;20.002;2023-09-07T10:32:20;11.40;;;5.40;;
34920;SDS011;21128;50.016;20.002;2023-09-07T10:34:47;12.90;;;5.00;;
34920;SDS011;21128;50.016;20.002;2023-09-07T10:37:14;7.70;;;5.50;;
34920;SDS011;21128;50.016;20.002;2023-09-07T10:39:43;9.30;;;5.10;;
34920;SDS011;21128;50.016;20.002;2023-09-07T10:42:24;8.40;;;5.20;;
34920;SDS011;21128;50.016;20.002;2023-09-07T10:44:53;7.00;;;5.10;;
34920;SDS011;21128;50.016;20.002;2023-09-07T10:47:20;8.40;;;4.70;;
34920;SDS011;21128;50.016;20.002;2023-09-07T10:49:47;11.30;;;4.80;;
34920;SDS011;21128;50.016;20.002;2023-09-07T10:52:14;10.30;;;4.50;;
34920;SDS011;21128;50.016;20.002;2023-09-07T10:54:41;7.70;;;4.70;;
34920;SDS011;21128;50.016;20.002;2023-09-07T10:57:08;10.30;;;4.60;;
34920;SDS011;21128;50.016;20.002;2023-09-07T10:59:36;5.70;;;4.30;;
34920;SDS011;21128;50.016;20.002;2023-09-07T11:02:04;7.70;;;4.20;;
34920;SDS011;21128;50.016;20.002;2023-09-07T11:04:31;5.70;;;3.80;;
34920;SDS011;21128;50.016;20.002;2023-09-07T11:06:58;9.30;;;4.10;;
34920;SDS011;21128;50.016;20.002;2023-09-07T11:09:25;8.60;;;4.80;;
34920;SDS011;21128;50.016;20.002;2023-09-07T11:11:52;8.70;;;4.90;;
34920;SDS011;21128;50.016;20.002;2023-09-07T11:14:20;8.30;;;4.60;;
34920;SDS011;21128;50.016;20.002;2023-09-07T11:16:48;14.30;;;4.70;;
34920;SDS011;21128;50.016;20.002;2023-09-07T11:19:15;5.30;;;3.60;;
34920;SDS011;21128;50.016;20.002;2023-09-07T11:21:42;8.80;;;4.50;;
34920;SDS011;21128;50.016;20.002;2023-09-07T11:24:09;7.60;;;4.00;;
34920;SDS011;21128;50.016;20.002;2023-09-07T11:26:42;5.50;;;3.80;;
34920;SDS011;21128;50.016;20.002;2023-09-07T11:29:14;7.60;;;3.80;;
34920;SDS011;21128;50.016;20.002;2023-09-07T11:31:42;5.70;;;3.90;;
34920;SDS011;21128;50.016;20.002;2023-09-07T11:34:10;6.10;;;4.10;;
34920;SDS011;21128;50.016;20.002;2023-09-07T11:36:39;11.10;;;4.20;;
34920;SDS011;21128;50.016;20.002;2023-09-07T11:39:12;8.40;;;4.20;;
34920;SDS011;21128;50.016;20.002;2023-09-07T11:41:41;6.50;;;4.10;;
34920;SDS011;21128;50.016;20.002;2023-09-07T11:44:08;7.20;;;4.40;;
34920;SDS011;21128;50.016;20.002;2023-09-07T11:46:36;5.80;;;3.90;;
34920;SDS011;21128;50.016;20.002;2023-09-07T11:49:03;6.90;;;3.60;;
34920;SDS011;21128;50.016;20.002;2023-09-07T11:51:33;8.70;;;4.20;;
34920;SDS011;21128;50.016;20.002;2023-09-07T11:54:01;9.00;;;3.90;;
34920;SDS011;21128;50.016;20.002;2023-09-07T11:56:29;6.40;;;4.00;;
34920;SDS011;21128;50.016;20.002;2023-09-07T11:58:56;8.40;;;4.50;;
34920;SDS011;21128;50.016;20.002;2023-09-07T12:01:23;6.90;;;4.30;;
34920;SDS011;21128;50.016;20.002;2023-09-07T12:03:50;8.00;;;5.40;;
34920;SDS011;21128;50.016;20.002;2023-09-07T12:06:17;7.20;;;4.20;;
34920;SDS011;21128;50.016;20.002;2023-09-07T12:08:57;16.70;;;4.30;;
34920;SDS011;21128;50.016;20.002;2023-09-07T12:11:26;7.50;;;3.50;;
34920;SDS011;21128;50.016;20.002;2023-09-07T12:13:52;10.60;;;4.00;;
34920;SDS011;21128;50.016;20.002;2023-09-07T12:16:19;7.30;;;3.90;;
34920;SDS011;21128;50.016;20.002;2023-09-07T12:18:46;10.30;;;3.80;;
34920;SDS011;21128;50.016;20.002;2023-09-07T12:21:13;8.40;;;3.70;;
34920;SDS011;21128;50.016;20.002;2023-09-07T12:23:40;10.10;;;4.20;;
34920;SDS011;21128;50.016;20.002;2023-09-07T12:26:06;7.70;;;3.90;;
34920;SDS011;21128;50.016;20.002;2023-09-07T12:28:35;7.60;;;3.60;;
34920;SDS011;21128;50.016;20.002;2023-09-07T12:31:02;5.60;;;3.80;;
34920;SDS011;21128;50.016;20.002;2023-09-07T12:33:29;7.70;;;4.10;;
34920;SDS011;21128;50.016;20.002;2023-09-07T12:35:57;6.40;;;3.40;;
34920;SDS011;21128;50.016;20.002;2023-09-07T12:38:23;9.10;;;4.40;;
34920;SDS011;21128;50.016;20.002;2023-09-07T12:40:54;9.70;;;4.40;;
34920;SDS011;21128;50.016;20.002;2023-09-07T12:43:22;11.00;;;4.50;;
34920;SDS011;21128;50.016;20.002;2023-09-07T12:45:51;9.20;;;4.20;;
34920;SDS011;21128;50.016;20.002;2023-09-07T12:48:18;6.40;;;4.10;;
34920;SDS011;21128;50.016;20.002;2023-09-07T12:50:46;9.10;;;4.10;;
34920;SDS011;21128;50.016;20.002;2023-09-07T12:53:13;7.90;;;4.30;;
34920;SDS011;21128;50.016;20.002;2023-09-07T12:55:40;4.60;;;3.40;;
34920;SDS011;21128;50.016;20.002;2023-09-07T12:58:07;6.70;;;3.70;;
34920;SDS011;21128;50.016;20.002;2023-09-07T13:00:33;6.90;;;4.30;;
34920;SDS011;21128;50.016;20.002;2023-09-07T13:03:00;6.40;;;4.20;;
34920;SDS011;21128;50.016;20.002;2023-09-07T13:05:27;8.10;;;4.10;;
34920;SDS011;21128;50.016;20.002;2023-09-07T13:07:54;5.30;;;4.20;;
34920;SDS011;21128;50.016;20.002;2023-09-07T13:10:21;7.50;;;3.50;;
34920;SDS011;21128;50.016;20.002;2023-09-07T13:12:47;10.70;;;4.20;;
34920;SDS011;21128;50.016;20.002;2023-09-07T13:15:14;5.10;;;3.50;;
34920;SDS011;21128;50.016;20.002;2023-09-07T13:17:41;6.30;;;4.00;;
34920;SDS011;21128;50.016;20.002;2023-09-07T13:20:08;7.70;;;3.50;;
34920;SDS011;21128;50.016;20.002;2023-09-07T13:22:35;9.70;;;4.30;;
34920;SDS011;21128;50.016;20.002;2023-09-07T13:25:02;10.00;;;3.90;;
34920;SDS011;21128;50.016;20.002;2023-09-07T13:27:31;12.00;;;3.40;;
34920;SDS011;21128;50.016;20.002;2023-09-07T13:29:58;9.90;;;3.60;;
34920;SDS011;21128;50.016;20.002;2023-09-07T13:32:25;5.20;;;3.90;;
34920;SDS011;21128;50.016;20.002;2023-09-07T13:34:51;10.80;;;4.40;;
34920;SDS011;21128;50.016;20.002;2023-09-07T13:37:18;8.60;;;3.60;;
34920;SDS011;21128;50.016;20.002;2023-09-07T13:39:45;8.00;;;3.70;;
34920;SDS011;21128;50.016;20.002;2023-09-07T13:42:12;6.50;;;3.60;;
34920;SDS011;21128;50.016;20.002;2023-09-07T13:44:38;8.70;;;4.00;;
34920;SDS011;21128;50.016;20.002;2023-09-07T13:47:05;9.50;;;3.70;;
34920;SDS011;21128;50.016;20.002;2023-09-07T13:49:32;8.00;;;3.10;;
34920;SDS011;21128;50.016;20.002;2023-09-07T13:51:59;5.80;;;4.30;;
34920;SDS011;21128;50.016;20.002;2023-09-07T13:54:26;6.00;;;4.00;;
34920;SDS011;21128;50.016;20.002;2023-09-07T13:56:52;7.90;;;3.80;;
34920;SDS011;21128;50.016;20.002;2023-09-07T13:59:20;7.20;;;3.90;;
34920;SDS011;21128;50.016;20.002;2023-09-07T14:01:46;6.10;;;2.90;;
34920;SDS011;21128;50.016;20.002;2023-09-07T14:04:14;9.80;;;3.50;;
34920;SDS011;21128;50.016;20.002;2023-09-07T14:06:41;6.60;;;3.80;;
34920;SDS011;21128;50.016;20.002;2023-09-07T14:09:08;4.50;;;3.10;;
34920;SDS011;21128;50.016;20.002;2023-09-07T14:11:35;7.30;;;2.80;;
34920;SDS011;21128;50.016;20.002;2023-09-07T14:14:01;4.20;;;2.90;;
34920;SDS011;21128;50.016;20.002;2023-09-07T14:16:28;5.30;;;3.00;;
34920;SDS011;21128;50.016;20.002;2023-09-07T14:18:55;4.90;;;3.00;;
34920;SDS011;21128;50.016;20.002;2023-09-07T14:21:22;6.60;;;2.40;;
34920;SDS011;21128;50.016;20.002;2023-09-07T14:23:48;7.10;;;3.20;;